sensor_id;sensor_type;location;lat;lon;timestamp;temperature;humidity
58339;DHT22;48278;52.704;6.536;2022-09-30T00:01:48;9.00;99.90
58339;DHT22;48278;52.704;6.536;2022-09-30T00:04:19;9.00;99.90
58339;DHT22;48278;52.704;6.536;2022-09-30T00:06:45;9.00;99.90
58339;DHT22;48278;52.704;6.536;2022-09-30T00:09:12;9.00;99.90
58339;DHT22;48278;52.704;6.536;2022-09-30T00:11:38;9.00;99.90
58339;DHT22;48278;52.704;6.536;2022-09-30T00:14:05;9.10;99.90
58339;DHT22;48278;52.704;6.536;2022-09-30T00:16:34;9.10;99.90
58339;DHT22;48278;52.704;6.536;2022-09-30T00:19:00;9.10;99.90
58339;DHT22;48278;52.704;6.536;2022-09-30T00:21:28;9.10;99.90
58339;DHT22;48278;52.704;6.536;2022-09-30T00:23:54;9.10;99.90
58339;DHT22;48278;52.704;6.536;2022-09-30T00:26:22;9.10;99.90
58339;DHT22;48278;52.704;6.536;2022-09-30T00:28:55;9.10;99.90
58339;DHT22;48278;52.704;6.536;2022-09-30T00:31:22;9.10;99.90
58339;DHT22;48278;52.704;6.536;2022-09-30T00:33:48;9.10;99.90
58339;DHT22;48278;52.704;6.536;2022-09-30T00:37:03;9.00;99.90
58339;DHT22;48278;52.704;6.536;2022-09-30T00:39:29;9.00;99.90
58339;DHT22;48278;52.704;6.536;2022-09-30T00:41:58;8.90;99.90
58339;DHT22;48278;52.704;6.536;2022-09-30T00:44:50;8.90;99.90
58339;DHT22;48278;52.704;6.536;2022-09-30T00:49:50;8.70;99.90
58339;DHT22;48278;52.704;6.536;2022-09-30T00:52:17;8.60;99.90
58339;DHT22;48278;52.704;6.536;2022-09-30T00:54:43;8.50;99.90
58339;DHT22;48278;52.704;6.536;2022-09-30T00:57:10;8.60;99.90
58339;DHT22;48278;52.704;6.536;2022-09-30T00:59:41;8.40;99.90
58339;DHT22;48278;52.704;6.536;2022-09-30T01:02:08;8.40;99.90
58339;DHT22;48278;52.704;6.536;2022-09-30T01:04:34;8.30;99.90
58339;DHT22;48278;52.704;6.536;2022-09-30T01:07:04;8.30;99.90
58339;DHT22;48278;52.704;6.536;2022-09-30T01:09:32;8.30;99.90
58339;DHT22;48278;52.704;6.536;2022-09-30T01:11:58;8.30;99.90
58339;DHT22;48278;52.704;6.536;2022-09-30T01:14:26;8.30;99.90
58339;DHT22;48278;52.704;6.536;2022-09-30T01:33:48;8.00;99.90
58339;DHT22;48278;52.704;6.536;2022-09-30T01:36:27;8.00;99.90
58339;DHT22;48278;52.704;6.536;2022-09-30T01:44:13;7.90;99.90
58339;DHT22;48278;52.704;6.536;2022-09-30T01:46:47;7.90;99.90
58339;DHT22;48278;52.704;6.536;2022-09-30T01:51:54;7.80;99.90
58339;DHT22;48278;52.704;6.536;2022-09-30T01:54:34;7.70;99.90
58339;DHT22;48278;52.704;6.536;2022-09-30T02:00:09;7.60;99.90
58339;DHT22;48278;52.704;6.536;2022-09-30T02:02:39;7.60;99.90
58339;DHT22;48278;52.704;6.536;2022-09-30T02:05:09;7.60;99.90
58339;DHT22;48278;52.704;6.536;2022-09-30T02:07:40;7.50;99.90
58339;DHT22;48278;52.704;6.536;2022-09-30T02:10:21;7.50;99.90
58339;DHT22;48278;52.704;6.536;2022-09-30T02:12:57;7.40;99.90
58339;DHT22;48278;52.704;6.536;2022-09-30T02:15:34;7.40;99.90
58339;DHT22;48278;52.704;6.536;2022-09-30T02:18:06;7.40;99.90
58339;DHT22;48278;52.704;6.536;2022-09-30T02:20:36;7.40;99.90
58339;DHT22;48278;52.704;6.536;2022-09-30T02:23:14;7.40;99.90
58339;DHT22;48278;52.704;6.536;2022-09-30T02:25:50;7.30;99.90
58339;DHT22;48278;52.704;6.536;2022-09-30T02:28:23;7.30;99.90
58339;DHT22;48278;52.704;6.536;2022-09-30T02:30:56;7.30;99.90
58339;DHT22;48278;52.704;6.536;2022-09-30T02:34:09;7.30;99.90
58339;DHT22;48278;52.704;6.536;2022-09-30T02:36:28;7.20;99.90
58339;DHT22;48278;52.704;6.536;2022-09-30T02:39:03;7.20;99.90
58339;DHT22;48278;52.704;6.536;2022-09-30T02:41:35;7.20;99.90
58339;DHT22;48278;52.704;6.536;2022-09-30T02:44:04;7.10;99.90
58339;DHT22;48278;52.704;6.536;2022-09-30T02:46:40;7.20;99.90
58339;DHT22;48278;52.704;6.536;2022-09-30T02:49:18;7.10;99.90
58339;DHT22;48278;52.704;6.536;2022-09-30T02:52:13;7.10;99.90
58339;DHT22;48278;52.704;6.536;2022-09-30T03:00:02;7.00;99.90
58339;DHT22;48278;52.704;6.536;2022-09-30T03:02:29;6.90;99.90
58339;DHT22;48278;52.704;6.536;2022-09-30T03:04:54;6.90;99.90
58339;DHT22;48278;52.704;6.536;2022-09-30T03:07:20;6.80;99.90
58339;DHT22;48278;52.704;6.536;2022-09-30T03:09:46;6.80;99.90
58339;DHT22;48278;52.704;6.536;2022-09-30T03:17:47;6.70;99.90
58339;DHT22;48278;52.704;6.536;2022-09-30T03:28:51;6.70;99.90
58339;DHT22;48278;52.704;6.536;2022-09-30T03:31:44;6.60;99.90
58339;DHT22;48278;52.704;6.536;2022-09-30T03:36:50;6.50;99.90
58339;DHT22;48278;52.704;6.536;2022-09-30T03:39:32;6.50;99.90
58339;DHT22;48278;52.704;6.536;2022-09-30T03:42:14;6.50;99.90
58339;DHT22;48278;52.704;6.536;2022-09-30T03:44:44;6.50;99.90
58339;DHT22;48278;52.704;6.536;2022-09-30T03:47:13;6.50;99.90
58339;DHT22;48278;52.704;6.536;2022-09-30T03:49:52;6.50;99.90
58339;DHT22;48278;52.704;6.536;2022-09-30T03:52:20;6.50;99.90
58339;DHT22;48278;52.704;6.536;2022-09-30T03:54:49;6.40;99.90
58339;DHT22;48278;52.704;6.536;2022-09-30T03:57:16;6.40;99.90
58339;DHT22;48278;52.704;6.536;2022-09-30T03:59:41;6.40;99.90
58339;DHT22;48278;52.704;6.536;2022-09-30T04:02:08;6.40;99.90
58339;DHT22;48278;52.704;6.536;2022-09-30T04:04:35;6.30;99.90
58339;DHT22;48278;52.704;6.536;2022-09-30T04:07:01;6.30;99.90
58339;DHT22;48278;52.704;6.536;2022-09-30T04:09:26;6.30;99.90
58339;DHT22;48278;52.704;6.536;2022-09-30T04:11:52;6.20;99.90
58339;DHT22;48278;52.704;6.536;2022-09-30T04:14:18;6.20;99.90
58339;DHT22;48278;52.704;6.536;2022-09-30T04:16:44;6.20;99.90
58339;DHT22;48278;52.704;6.536;2022-09-30T04:19:09;6.20;99.90
58339;DHT22;48278;52.704;6.536;2022-09-30T04:21:35;6.20;99.90
58339;DHT22;48278;52.704;6.536;2022-09-30T04:24:01;6.20;99.90
58339;DHT22;48278;52.704;6.536;2022-09-30T04:26:26;6.20;99.90
58339;DHT22;48278;52.704;6.536;2022-09-30T04:28:52;6.20;99.90
58339;DHT22;48278;52.704;6.536;2022-09-30T04:31:19;6.20;99.90
58339;DHT22;48278;52.704;6.536;2022-09-30T04:33:46;6.10;99.90
58339;DHT22;48278;52.704;6.536;2022-09-30T04:36:11;6.10;99.90
58339;DHT22;48278;52.704;6.536;2022-09-30T04:38:37;6.10;99.90
58339;DHT22;48278;52.704;6.536;2022-09-30T04:41:04;6.00;99.90
58339;DHT22;48278;52.704;6.536;2022-09-30T04:43:31;6.00;99.90
58339;DHT22;48278;52.704;6.536;2022-09-30T04:45:57;6.00;99.90
58339;DHT22;48278;52.704;6.536;2022-09-30T04:48:23;5.90;99.90
58339;DHT22;48278;52.704;6.536;2022-09-30T04:50:49;5.90;99.90
58339;DHT22;48278;52.704;6.536;2022-09-30T04:53:16;6.00;99.90
58339;DHT22;48278;52.704;6.536;2022-09-30T04:55:43;5.90;99.90
58339;DHT22;48278;52.704;6.536;2022-09-30T04:58:10;5.90;99.90
58339;DHT22;48278;52.704;6.536;2022-09-30T05:00:36;5.90;99.90
58339;DHT22;48278;52.704;6.536;2022-09-30T05:03:02;5.80;99.90
58339;DHT22;48278;52.704;6.536;2022-09-30T05:05:28;5.90;99.90
58339;DHT22;48278;52.704;6.536;2022-09-30T05:08:04;5.90;99.90
58339;DHT22;48278;52.704;6.536;2022-09-30T05:10:30;5.90;99.90
58339;DHT22;48278;52.704;6.536;2022-09-30T05:12:56;5.90;99.90
58339;DHT22;48278;52.704;6.536;2022-09-30T05:15:28;5.80;99.90
58339;DHT22;48278;52.704;6.536;2022-09-30T05:17:54;5.80;99.90
58339;DHT22;48278;52.704;6.536;2022-09-30T05:20:20;5.80;99.90
58339;DHT22;48278;52.704;6.536;2022-09-30T05:22:46;5.80;99.90
58339;DHT22;48278;52.704;6.536;2022-09-30T05:25:15;5.70;99.90
58339;DHT22;48278;52.704;6.536;2022-09-30T05:27:40;5.80;99.90
58339;DHT22;48278;52.704;6.536;2022-09-30T05:30:06;5.80;99.90
58339;DHT22;48278;52.704;6.536;2022-09-30T05:32:32;5.80;99.90
58339;DHT22;48278;52.704;6.536;2022-09-30T05:34:58;5.70;99.90
58339;DHT22;48278;52.704;6.536;2022-09-30T05:37:24;5.70;99.90
58339;DHT22;48278;52.704;6.536;2022-09-30T05:39:50;5.80;99.90
58339;DHT22;48278;52.704;6.536;2022-09-30T05:42:15;5.70;99.90
58339;DHT22;48278;52.704;6.536;2022-09-30T05:44:41;5.70;99.90
58339;DHT22;48278;52.704;6.536;2022-09-30T05:47:07;5.70;99.90
58339;DHT22;48278;52.704;6.536;2022-09-30T05:49:36;5.80;99.90
58339;DHT22;48278;52.704;6.536;2022-09-30T05:52:02;5.70;99.90
58339;DHT22;48278;52.704;6.536;2022-09-30T05:54:27;5.80;99.90
58339;DHT22;48278;52.704;6.536;2022-09-30T05:56:53;5.80;99.90
58339;DHT22;48278;52.704;6.536;2022-09-30T05:59:19;5.80;99.90
58339;DHT22;48278;52.704;6.536;2022-09-30T06:01:44;5.80;99.90
58339;DHT22;48278;52.704;6.536;2022-09-30T06:04:10;5.90;99.90
58339;DHT22;48278;52.704;6.536;2022-09-30T06:06:36;5.90;99.90
58339;DHT22;48278;52.704;6.536;2022-09-30T06:09:03;5.90;99.90
58339;DHT22;48278;52.704;6.536;2022-09-30T06:11:29;5.90;99.90
58339;DHT22;48278;52.704;6.536;2022-09-30T06:13:56;5.90;99.90
58339;DHT22;48278;52.704;6.536;2022-09-30T06:16:22;6.00;99.90
58339;DHT22;48278;52.704;6.536;2022-09-30T06:18:48;6.00;99.90
58339;DHT22;48278;52.704;6.536;2022-09-30T06:21:15;6.10;99.90
58339;DHT22;48278;52.704;6.536;2022-09-30T06:23:41;6.10;99.90
58339;DHT22;48278;52.704;6.536;2022-09-30T06:26:09;6.10;99.90
58339;DHT22;48278;52.704;6.536;2022-09-30T06:28:36;6.10;99.90
58339;DHT22;48278;52.704;6.536;2022-09-30T06:31:03;6.20;99.90
58339;DHT22;48278;52.704;6.536;2022-09-30T06:33:30;6.20;99.90
58339;DHT22;48278;52.704;6.536;2022-09-30T06:35:56;6.30;99.90
58339;DHT22;48278;52.704;6.536;2022-09-30T06:38:22;6.30;99.90
58339;DHT22;48278;52.704;6.536;2022-09-30T06:40:49;6.30;99.90
58339;DHT22;48278;52.704;6.536;2022-09-30T06:43:18;6.40;99.90
58339;DHT22;48278;52.704;6.536;2022-09-30T06:45:48;6.40;99.90
58339;DHT22;48278;52.704;6.536;2022-09-30T06:48:17;6.40;99.90
58339;DHT22;48278;52.704;6.536;2022-09-30T06:50:43;6.50;99.90
58339;DHT22;48278;52.704;6.536;2022-09-30T06:53:11;6.50;99.90
58339;DHT22;48278;52.704;6.536;2022-09-30T06:55:37;6.60;99.90
58339;DHT22;48278;52.704;6.536;2022-09-30T06:58:04;6.60;99.90
58339;DHT22;48278;52.704;6.536;2022-09-30T07:00:34;6.70;99.90
58339;DHT22;48278;52.704;6.536;2022-09-30T07:03:01;6.80;99.90
58339;DHT22;48278;52.704;6.536;2022-09-30T07:05:26;6.90;99.90
58339;DHT22;48278;52.704;6.536;2022-09-30T07:07:53;6.90;99.90
58339;DHT22;48278;52.704;6.536;2022-09-30T07:10:19;7.00;99.90
58339;DHT22;48278;52.704;6.536;2022-09-30T07:12:51;7.10;99.90
58339;DHT22;48278;52.704;6.536;2022-09-30T07:15:20;7.20;99.90
58339;DHT22;48278;52.704;6.536;2022-09-30T07:17:54;7.30;99.90
58339;DHT22;48278;52.704;6.536;2022-09-30T07:20:21;7.30;99.90
58339;DHT22;48278;52.704;6.536;2022-09-30T07:22:47;7.30;99.90
58339;DHT22;48278;52.704;6.536;2022-09-30T07:25:13;7.40;99.90
58339;DHT22;48278;52.704;6.536;2022-09-30T07:27:40;7.50;99.90
58339;DHT22;48278;52.704;6.536;2022-09-30T07:30:06;7.50;99.90
58339;DHT22;48278;52.704;6.536;2022-09-30T07:32:32;7.60;99.90
58339;DHT22;48278;52.704;6.536;2022-09-30T07:34:58;7.70;99.90
58339;DHT22;48278;52.704;6.536;2022-09-30T07:37:24;7.70;99.90
58339;DHT22;48278;52.704;6.536;2022-09-30T07:39:51;7.80;99.90
58339;DHT22;48278;52.704;6.536;2022-09-30T07:42:19;7.90;99.90
58339;DHT22;48278;52.704;6.536;2022-09-30T07:44:46;8.00;99.90
58339;DHT22;48278;52.704;6.536;2022-09-30T07:47:13;8.10;99.90
58339;DHT22;48278;52.704;6.536;2022-09-30T07:49:41;8.20;99.90
58339;DHT22;48278;52.704;6.536;2022-09-30T07:52:09;8.30;99.90
58339;DHT22;48278;52.704;6.536;2022-09-30T07:54:35;8.40;99.90
58339;DHT22;48278;52.704;6.536;2022-09-30T07:57:02;8.50;99.90
58339;DHT22;48278;52.704;6.536;2022-09-30T07:59:29;8.60;99.90
58339;DHT22;48278;52.704;6.536;2022-09-30T08:01:56;8.60;99.90
58339;DHT22;48278;52.704;6.536;2022-09-30T08:04:23;8.70;99.90
58339;DHT22;48278;52.704;6.536;2022-09-30T08:06:53;8.70;99.90
58339;DHT22;48278;52.704;6.536;2022-09-30T08:09:21;8.90;99.90
58339;DHT22;48278;52.704;6.536;2022-09-30T08:11:47;9.00;99.90
58339;DHT22;48278;52.704;6.536;2022-09-30T08:14:15;9.00;99.90
58339;DHT22;48278;52.704;6.536;2022-09-30T08:16:41;9.20;99.90
58339;DHT22;48278;52.704;6.536;2022-09-30T08:19:12;9.20;99.90
58339;DHT22;48278;52.704;6.536;2022-09-30T08:21:39;9.40;99.90
58339;DHT22;48278;52.704;6.536;2022-09-30T08:24:04;9.60;99.90
58339;DHT22;48278;52.704;6.536;2022-09-30T08:26:30;9.60;99.90
58339;DHT22;48278;52.704;6.536;2022-09-30T08:28:59;9.70;99.90
58339;DHT22;48278;52.704;6.536;2022-09-30T08:31:26;9.90;99.90
58339;DHT22;48278;52.704;6.536;2022-09-30T08:33:53;9.90;99.90
58339;DHT22;48278;52.704;6.536;2022-09-30T08:36:24;10.00;99.90
58339;DHT22;48278;52.704;6.536;2022-09-30T08:38:50;10.10;99.90
58339;DHT22;48278;52.704;6.536;2022-09-30T08:41:34;10.10;99.90
58339;DHT22;48278;52.704;6.536;2022-09-30T08:47:29;10.30;99.90
58339;DHT22;48278;52.704;6.536;2022-09-30T08:53:20;10.50;99.90
58339;DHT22;48278;52.704;6.536;2022-09-30T08:55:48;10.60;99.90
58339;DHT22;48278;52.704;6.536;2022-09-30T08:58:35;10.70;99.90
58339;DHT22;48278;52.704;6.536;2022-09-30T09:01:28;10.80;99.90
58339;DHT22;48278;52.704;6.536;2022-09-30T09:03:56;10.90;99.90
58339;DHT22;48278;52.704;6.536;2022-09-30T09:14:46;11.30;99.90
58339;DHT22;48278;52.704;6.536;2022-09-30T09:17:50;11.40;99.90
58339;DHT22;48278;52.704;6.536;2022-09-30T09:20:21;11.50;99.90
58339;DHT22;48278;52.704;6.536;2022-09-30T09:22:48;11.60;99.90
58339;DHT22;48278;52.704;6.536;2022-09-30T09:25:19;11.80;99.90
58339;DHT22;48278;52.704;6.536;2022-09-30T09:27:56;11.90;99.90
58339;DHT22;48278;52.704;6.536;2022-09-30T09:30:25;12.10;99.90
58339;DHT22;48278;52.704;6.536;2022-09-30T09:32:59;12.20;99.90
58339;DHT22;48278;52.704;6.536;2022-09-30T09:35:53;12.20;99.90
58339;DHT22;48278;52.704;6.536;2022-09-30T09:38:38;12.30;99.90
58339;DHT22;48278;52.704;6.536;2022-09-30T09:44:28;12.60;99.90
58339;DHT22;48278;52.704;6.536;2022-09-30T09:46:59;12.70;99.90
58339;DHT22;48278;52.704;6.536;2022-09-30T09:54:46;12.80;99.90
58339;DHT22;48278;52.704;6.536;2022-09-30T09:57:20;12.90;99.90
58339;DHT22;48278;52.704;6.536;2022-09-30T10:02:30;13.30;99.90
58339;DHT22;48278;52.704;6.536;2022-09-30T10:04:57;13.20;99.90
58339;DHT22;48278;52.704;6.536;2022-09-30T10:07:30;13.20;99.90
58339;DHT22;48278;52.704;6.536;2022-09-30T10:10:17;13.20;99.90
58339;DHT22;48278;52.704;6.536;2022-09-30T10:12:43;13.30;99.90
58339;DHT22;48278;52.704;6.536;2022-09-30T10:15:24;13.40;99.90
58339;DHT22;48278;52.704;6.536;2022-09-30T10:17:53;13.70;99.90
58339;DHT22;48278;52.704;6.536;2022-09-30T10:20:27;13.50;99.90
58339;DHT22;48278;52.704;6.536;2022-09-30T10:23:17;13.50;99.90
58339;DHT22;48278;52.704;6.536;2022-09-30T10:30:57;13.80;99.90
58339;DHT22;48278;52.704;6.536;2022-09-30T10:33:46;13.90;99.90
58339;DHT22;48278;52.704;6.536;2022-09-30T10:36:18;14.00;99.90
58339;DHT22;48278;52.704;6.536;2022-09-30T10:38:56;14.10;99.90
58339;DHT22;48278;52.704;6.536;2022-09-30T10:41:30;14.10;99.90
58339;DHT22;48278;52.704;6.536;2022-09-30T10:43:59;14.20;99.90
58339;DHT22;48278;52.704;6.536;2022-09-30T10:46:29;14.10;99.90
58339;DHT22;48278;52.704;6.536;2022-09-30T10:48:59;14.20;99.90
58339;DHT22;48278;52.704;6.536;2022-09-30T10:51:33;14.30;99.90
58339;DHT22;48278;52.704;6.536;2022-09-30T10:56:39;14.70;99.90
58339;DHT22;48278;52.704;6.536;2022-09-30T10:59:33;14.50;99.90
58339;DHT22;48278;52.704;6.536;2022-09-30T11:05:04;14.60;99.90
58339;DHT22;48278;52.704;6.536;2022-09-30T11:07:38;14.70;99.90
58339;DHT22;48278;52.704;6.536;2022-09-30T11:12:54;15.00;99.90
58339;DHT22;48278;52.704;6.536;2022-09-30T11:15:27;15.00;99.90
58339;DHT22;48278;52.704;6.536;2022-09-30T11:20:30;15.00;99.90
58339;DHT22;48278;52.704;6.536;2022-09-30T11:23:49;15.10;99.90
58339;DHT22;48278;52.704;6.536;2022-09-30T12:01:43;15.90;99.90
58339;DHT22;48278;52.704;6.536;2022-09-30T12:06:52;16.00;99.90
58339;DHT22;48278;52.704;6.536;2022-09-30T12:09:36;16.00;99.90
58339;DHT22;48278;52.704;6.536;2022-09-30T12:12:10;15.90;99.90
58339;DHT22;48278;52.704;6.536;2022-09-30T12:19:47;16.00;99.90
58339;DHT22;48278;52.704;6.536;2022-09-30T12:25:23;15.80;99.90
58339;DHT22;48278;52.704;6.536;2022-09-30T12:30:24;15.80;99.90
58339;DHT22;48278;52.704;6.536;2022-09-30T12:38:50;16.10;99.90
58339;DHT22;48278;52.704;6.536;2022-09-30T12:49:28;16.40;99.90
58339;DHT22;48278;52.704;6.536;2022-09-30T12:51:59;16.40;99.90
58339;DHT22;48278;52.704;6.536;2022-09-30T12:54:34;16.20;99.90
58339;DHT22;48278;52.704;6.536;2022-09-30T12:57:02;16.10;99.90
58339;DHT22;48278;52.704;6.536;2022-09-30T12:59:32;16.00;99.90
58339;DHT22;48278;52.704;6.536;2022-09-30T13:02:00;16.10;99.90
58339;DHT22;48278;52.704;6.536;2022-09-30T13:09:37;16.30;99.90
58339;DHT22;48278;52.704;6.536;2022-09-30T13:12:41;16.40;99.90
58339;DHT22;48278;52.704;6.536;2022-09-30T13:23:39;16.50;99.90
58339;DHT22;48278;52.704;6.536;2022-09-30T13:31:26;16.30;99.90
58339;DHT22;48278;52.704;6.536;2022-09-30T13:36:28;16.20;99.90
58339;DHT22;48278;52.704;6.536;2022-09-30T13:42:27;16.40;99.90
58339;DHT22;48278;52.704;6.536;2022-09-30T13:45:28;16.40;99.90
58339;DHT22;48278;52.704;6.536;2022-09-30T13:50:48;16.50;99.90
58339;DHT22;48278;52.704;6.536;2022-09-30T13:56:25;16.50;99.90
58339;DHT22;48278;52.704;6.536;2022-09-30T14:23:17;16.40;99.90
58339;DHT22;48278;52.704;6.536;2022-09-30T14:28:50;16.20;99.90
58339;DHT22;48278;52.704;6.536;2022-09-30T14:31:18;16.20;99.90
58339;DHT22;48278;52.704;6.536;2022-09-30T14:33:47;16.20;99.90
58339;DHT22;48278;52.704;6.536;2022-09-30T14:36:19;16.00;99.90
58339;DHT22;48278;52.704;6.536;2022-09-30T14:38:50;16.00;99.90
58339;DHT22;48278;52.704;6.536;2022-09-30T14:41:22;16.10;99.90
58339;DHT22;48278;52.704;6.536;2022-09-30T14:43:57;16.00;99.90
58339;DHT22;48278;52.704;6.536;2022-09-30T14:46:43;16.00;99.90
58339;DHT22;48278;52.704;6.536;2022-09-30T14:49:15;15.90;99.90
58339;DHT22;48278;52.704;6.536;2022-09-30T14:51:45;15.90;99.90
58339;DHT22;48278;52.704;6.536;2022-09-30T14:54:20;15.80;99.90
58339;DHT22;48278;52.704;6.536;2022-09-30T14:56:46;15.90;99.90
58339;DHT22;48278;52.704;6.536;2022-09-30T15:01:48;15.90;99.90
58339;DHT22;48278;52.704;6.536;2022-09-30T15:04:17;15.90;99.90
58339;DHT22;48278;52.704;6.536;2022-09-30T15:06:50;15.90;99.90
58339;DHT22;48278;52.704;6.536;2022-09-30T15:12:21;16.00;99.90
58339;DHT22;48278;52.704;6.536;2022-09-30T15:14:58;16.00;99.90
58339;DHT22;48278;52.704;6.536;2022-09-30T15:17:34;15.90;99.90
58339;DHT22;48278;52.704;6.536;2022-09-30T15:20:01;15.90;99.90
58339;DHT22;48278;52.704;6.536;2022-09-30T15:22:42;15.90;99.90
58339;DHT22;48278;52.704;6.536;2022-09-30T15:25:10;15.90;99.90
58339;DHT22;48278;52.704;6.536;2022-09-30T15:27:36;15.70;99.90
58339;DHT22;48278;52.704;6.536;2022-09-30T15:32:41;15.50;99.90
58339;DHT22;48278;52.704;6.536;2022-09-30T15:35:12;15.40;99.90
58339;DHT22;48278;52.704;6.536;2022-09-30T15:37:42;15.30;99.90
58339;DHT22;48278;52.704;6.536;2022-09-30T15:40:13;15.20;99.90
58339;DHT22;48278;52.704;6.536;2022-09-30T15:43:01;15.10;99.90
58339;DHT22;48278;52.704;6.536;2022-09-30T15:45:55;15.00;99.90
58339;DHT22;48278;52.704;6.536;2022-09-30T15:53:28;14.90;99.90
58339;DHT22;48278;52.704;6.536;2022-09-30T15:55:58;14.90;99.90
58339;DHT22;48278;52.704;6.536;2022-09-30T15:58:38;14.80;99.90
58339;DHT22;48278;52.704;6.536;2022-09-30T16:01:23;14.80;99.90
58339;DHT22;48278;52.704;6.536;2022-09-30T16:14:39;15.00;99.90
58339;DHT22;48278;52.704;6.536;2022-09-30T16:17:12;14.90;99.90
58339;DHT22;48278;52.704;6.536;2022-09-30T16:19:39;14.90;99.90
58339;DHT22;48278;52.704;6.536;2022-09-30T16:25:17;14.90;99.90
58339;DHT22;48278;52.704;6.536;2022-09-30T16:27:43;14.80;99.90
58339;DHT22;48278;52.704;6.536;2022-09-30T16:30:18;14.70;99.90
58339;DHT22;48278;52.704;6.536;2022-09-30T16:32:47;14.60;99.90
58339;DHT22;48278;52.704;6.536;2022-09-30T16:35:22;14.60;99.90
58339;DHT22;48278;52.704;6.536;2022-09-30T16:37:50;14.50;99.90
58339;DHT22;48278;52.704;6.536;2022-09-30T16:40:23;14.40;99.90
58339;DHT22;48278;52.704;6.536;2022-09-30T16:42:51;14.40;99.90
58339;DHT22;48278;52.704;6.536;2022-09-30T16:45:20;14.30;99.90
58339;DHT22;48278;52.704;6.536;2022-09-30T16:47:46;14.20;99.90
58339;DHT22;48278;52.704;6.536;2022-09-30T16:50:19;14.10;99.90
58339;DHT22;48278;52.704;6.536;2022-09-30T16:52:46;14.10;99.90
58339;DHT22;48278;52.704;6.536;2022-09-30T16:55:12;13.90;99.90
58339;DHT22;48278;52.704;6.536;2022-09-30T16:57:37;13.80;99.90
58339;DHT22;48278;52.704;6.536;2022-09-30T17:00:04;13.70;99.90
58339;DHT22;48278;52.704;6.536;2022-09-30T17:02:30;13.60;99.90
58339;DHT22;48278;52.704;6.536;2022-09-30T17:04:55;13.50;99.90
58339;DHT22;48278;52.704;6.536;2022-09-30T17:07:21;13.50;99.90
58339;DHT22;48278;52.704;6.536;2022-09-30T17:09:48;13.40;99.90
58339;DHT22;48278;52.704;6.536;2022-09-30T17:12:14;13.30;99.90
58339;DHT22;48278;52.704;6.536;2022-09-30T17:14:40;13.20;99.90
58339;DHT22;48278;52.704;6.536;2022-09-30T17:17:08;13.10;99.90
58339;DHT22;48278;52.704;6.536;2022-09-30T17:19:34;13.00;99.90
58339;DHT22;48278;52.704;6.536;2022-09-30T17:22:03;13.00;99.90
58339;DHT22;48278;52.704;6.536;2022-09-30T17:24:30;12.90;99.90
58339;DHT22;48278;52.704;6.536;2022-09-30T17:26:56;12.80;99.90
58339;DHT22;48278;52.704;6.536;2022-09-30T17:29:23;12.80;99.90
58339;DHT22;48278;52.704;6.536;2022-09-30T17:31:49;12.80;99.90
58339;DHT22;48278;52.704;6.536;2022-09-30T17:34:17;12.80;99.90
58339;DHT22;48278;52.704;6.536;2022-09-30T17:36:42;12.80;99.90
58339;DHT22;48278;52.704;6.536;2022-09-30T17:39:08;12.70;99.90
58339;DHT22;48278;52.704;6.536;2022-09-30T17:41:35;12.70;99.90
58339;DHT22;48278;52.704;6.536;2022-09-30T17:44:20;12.70;99.90
58339;DHT22;48278;52.704;6.536;2022-09-30T17:46:46;12.70;99.90
58339;DHT22;48278;52.704;6.536;2022-09-30T17:49:13;12.60;99.90
58339;DHT22;48278;52.704;6.536;2022-09-30T17:51:41;12.60;99.90
58339;DHT22;48278;52.704;6.536;2022-09-30T17:54:07;12.50;99.90
58339;DHT22;48278;52.704;6.536;2022-09-30T17:56:39;12.50;99.90
58339;DHT22;48278;52.704;6.536;2022-09-30T17:59:07;12.50;99.90
58339;DHT22;48278;52.704;6.536;2022-09-30T18:01:34;12.60;99.90
58339;DHT22;48278;52.704;6.536;2022-09-30T18:04:00;12.60;99.90
58339;DHT22;48278;52.704;6.536;2022-09-30T18:06:26;12.50;99.90
58339;DHT22;48278;52.704;6.536;2022-09-30T18:08:53;12.50;99.90
58339;DHT22;48278;52.704;6.536;2022-09-30T18:11:20;12.50;99.90
58339;DHT22;48278;52.704;6.536;2022-09-30T18:13:53;12.50;99.90
58339;DHT22;48278;52.704;6.536;2022-09-30T18:16:20;12.60;99.90
58339;DHT22;48278;52.704;6.536;2022-09-30T18:18:46;12.60;99.90
58339;DHT22;48278;52.704;6.536;2022-09-30T18:21:12;12.60;99.90
58339;DHT22;48278;52.704;6.536;2022-09-30T18:23:38;12.70;99.90
58339;DHT22;48278;52.704;6.536;2022-09-30T18:26:03;12.60;99.90
58339;DHT22;48278;52.704;6.536;2022-09-30T18:28:29;12.50;99.90
58339;DHT22;48278;52.704;6.536;2022-09-30T18:30:55;12.50;99.90
58339;DHT22;48278;52.704;6.536;2022-09-30T18:33:21;12.40;99.90
58339;DHT22;48278;52.704;6.536;2022-09-30T18:35:47;12.40;99.90
58339;DHT22;48278;52.704;6.536;2022-09-30T18:38:13;12.40;99.90
58339;DHT22;48278;52.704;6.536;2022-09-30T18:40:42;12.40;99.90
58339;DHT22;48278;52.704;6.536;2022-09-30T18:43:12;12.30;99.90
58339;DHT22;48278;52.704;6.536;2022-09-30T18:45:38;12.40;99.90
58339;DHT22;48278;52.704;6.536;2022-09-30T18:48:05;12.40;99.90
58339;DHT22;48278;52.704;6.536;2022-09-30T18:50:34;12.40;99.90
58339;DHT22;48278;52.704;6.536;2022-09-30T18:53:00;12.40;99.90
58339;DHT22;48278;52.704;6.536;2022-09-30T18:55:33;12.40;99.90
58339;DHT22;48278;52.704;6.536;2022-09-30T18:58:01;12.30;99.90
58339;DHT22;48278;52.704;6.536;2022-09-30T19:00:27;12.20;99.90
58339;DHT22;48278;52.704;6.536;2022-09-30T19:02:54;12.30;99.90
58339;DHT22;48278;52.704;6.536;2022-09-30T19:05:23;12.20;99.90
58339;DHT22;48278;52.704;6.536;2022-09-30T19:07:48;12.20;99.90
58339;DHT22;48278;52.704;6.536;2022-09-30T19:10:15;12.20;99.90
58339;DHT22;48278;52.704;6.536;2022-09-30T19:12:41;12.20;99.90
58339;DHT22;48278;52.704;6.536;2022-09-30T19:15:12;12.30;99.90
58339;DHT22;48278;52.704;6.536;2022-09-30T19:17:41;12.20;99.90
58339;DHT22;48278;52.704;6.536;2022-09-30T19:20:08;12.20;99.90
58339;DHT22;48278;52.704;6.536;2022-09-30T19:22:34;12.30;99.90
58339;DHT22;48278;52.704;6.536;2022-09-30T19:25:07;12.30;99.90
58339;DHT22;48278;52.704;6.536;2022-09-30T19:27:35;12.30;99.90
58339;DHT22;48278;52.704;6.536;2022-09-30T19:30:04;12.30;99.90
58339;DHT22;48278;52.704;6.536;2022-09-30T19:32:31;12.30;99.90
58339;DHT22;48278;52.704;6.536;2022-09-30T19:35:09;12.40;99.90
58339;DHT22;48278;52.704;6.536;2022-09-30T19:37:37;12.30;99.90
58339;DHT22;48278;52.704;6.536;2022-09-30T19:40:05;12.30;99.90
58339;DHT22;48278;52.704;6.536;2022-09-30T19:42:33;12.40;99.90
58339;DHT22;48278;52.704;6.536;2022-09-30T19:45:05;12.40;99.90
58339;DHT22;48278;52.704;6.536;2022-09-30T19:47:32;12.40;99.90
58339;DHT22;48278;52.704;6.536;2022-09-30T19:49:58;12.40;99.90
58339;DHT22;48278;52.704;6.536;2022-09-30T19:52:28;12.40;99.90
58339;DHT22;48278;52.704;6.536;2022-09-30T19:54:54;12.40;99.90
58339;DHT22;48278;52.704;6.536;2022-09-30T19:57:21;12.30;99.90
58339;DHT22;48278;52.704;6.536;2022-09-30T19:59:48;12.40;99.90